createdAt,value
2018-07-16T00:00:14.845Z,16.30
2018-07-16T00:02:43.217Z,16.30
2018-07-16T00:05:11.515Z,16.30
2018-07-16T00:07:39.833Z,16.30
2018-07-16T00:10:08.124Z,16.30
2018-07-16T00:12:36.420Z,16.30
2018-07-16T00:15:04.806Z,16.20
2018-07-16T00:17:33.239Z,16.20
2018-07-16T00:20:01.625Z,16.20
2018-07-16T00:22:29.876Z,16.10
2018-07-16T00:24:58.155Z,16.20
2018-07-16T00:27:26.411Z,16.10
2018-07-16T00:29:54.652Z,16.10
2018-07-16T00:32:22.914Z,16.10
2018-07-16T00:34:51.140Z,16.00
2018-07-16T00:37:19.391Z,16.10
2018-07-16T00:39:47.644Z,16.10
2018-07-16T00:42:15.905Z,16.10
2018-07-16T00:44:44.143Z,16.20
2018-07-16T00:47:12.392Z,16.20
2018-07-16T00:49:40.636Z,16.10
2018-07-16T00:52:08.887Z,16.00
2018-07-16T00:54:37.145Z,16.00
2018-07-16T00:57:05.402Z,16.00
2018-07-16T00:59:33.637Z,16.00
2018-07-16T01:02:01.926Z,16.00
2018-07-16T01:04:30.177Z,16.00
2018-07-16T01:06:58.412Z,15.90
2018-07-16T01:09:26.653Z,15.80
2018-07-16T01:11:54.903Z,15.80
2018-07-16T01:14:23.144Z,15.80
2018-07-16T01:16:51.408Z,15.70
2018-07-16T01:19:19.655Z,15.70
2018-07-16T01:21:47.924Z,15.70
2018-07-16T01:24:16.181Z,15.70
2018-07-16T01:26:44.419Z,15.70
2018-07-16T01:29:12.664Z,15.80
2018-07-16T01:31:40.908Z,15.70
2018-07-16T01:34:09.140Z,15.70
2018-07-16T01:36:37.385Z,15.80
2018-07-16T01:39:05.781Z,15.80
2018-07-16T01:41:34.172Z,15.80
2018-07-16T01:44:02.440Z,15.80
2018-07-16T01:46:30.685Z,15.90
2018-07-16T01:48:58.928Z,15.90
2018-07-16T01:51:27.172Z,15.90
2018-07-16T01:53:55.464Z,15.90
2018-07-16T01:56:23.717Z,15.90
2018-07-16T01:58:51.986Z,15.90
2018-07-16T02:01:20.256Z,15.80
2018-07-16T02:03:48.515Z,15.70
2018-07-16T02:08:51.324Z,15.70
2018-07-16T02:11:19.573Z,15.70
2018-07-16T02:13:47.954Z,15.70
2018-07-16T02:16:16.219Z,15.70
2018-07-16T02:18:44.452Z,15.70
2018-07-16T02:21:12.709Z,15.70
2018-07-16T02:23:40.980Z,15.70
2018-07-16T02:26:09.220Z,15.70
2018-07-16T02:28:37.467Z,15.70
2018-07-16T02:31:05.718Z,15.70
2018-07-16T02:33:33.984Z,15.60
2018-07-16T02:36:02.254Z,15.70
2018-07-16T02:38:30.525Z,15.60
2018-07-16T02:40:58.807Z,15.60
2018-07-16T02:43:27.048Z,15.70
2018-07-16T02:45:55.318Z,15.70
2018-07-16T02:48:23.574Z,15.60
2018-07-16T02:50:51.816Z,15.60
2018-07-16T02:53:20.071Z,15.60
2018-07-16T02:55:48.394Z,15.60
2018-07-16T02:58:16.645Z,15.60
2018-07-16T03:00:44.892Z,15.60
2018-07-16T03:03:13.146Z,15.60
2018-07-16T03:05:41.389Z,15.70
2018-07-16T03:08:09.648Z,15.60
2018-07-16T03:10:37.960Z,15.70
2018-07-16T03:13:06.663Z,15.70
2018-07-16T03:15:34.908Z,15.70
2018-07-16T03:18:03.206Z,15.70
2018-07-16T03:20:31.421Z,15.70
2018-07-16T03:22:59.669Z,15.60
2018-07-16T03:25:27.937Z,15.60
2018-07-16T03:27:56.197Z,15.50
2018-07-16T03:30:24.476Z,15.50
2018-07-16T03:32:52.740Z,15.50
2018-07-16T03:35:20.984Z,15.50
2018-07-16T03:37:49.229Z,15.60
2018-07-16T03:40:17.468Z,15.60
2018-07-16T03:42:45.733Z,15.60
2018-07-16T03:45:13.967Z,15.60
2018-07-16T03:47:42.208Z,15.60
2018-07-16T03:50:10.473Z,15.70
2018-07-16T03:52:38.743Z,15.70
2018-07-16T03:55:06.988Z,15.70
2018-07-16T03:57:35.252Z,15.60
2018-07-16T04:00:03.529Z,15.60
2018-07-16T04:02:31.822Z,15.60
2018-07-16T04:05:00.036Z,15.70
2018-07-16T04:07:28.416Z,15.80
2018-07-16T04:09:56.653Z,15.80
2018-07-16T04:12:24.900Z,15.90
2018-07-16T04:14:53.148Z,16.00
2018-07-16T04:17:21.409Z,16.20
2018-07-16T04:19:49.653Z,16.30
2018-07-16T04:22:17.905Z,16.40
2018-07-16T04:24:46.148Z,16.40
2018-07-16T04:27:14.397Z,16.40
2018-07-16T04:29:42.632Z,16.50
2018-07-16T04:32:10.877Z,16.60
2018-07-16T04:34:39.129Z,16.60
2018-07-16T04:37:07.384Z,16.60
2018-07-16T04:39:35.631Z,16.70
2018-07-16T04:42:03.896Z,16.80
2018-07-16T04:44:32.145Z,16.90
2018-07-16T04:47:00.384Z,16.90
2018-07-16T04:49:28.641Z,16.80
2018-07-16T04:51:56.881Z,16.70
2018-07-16T04:54:25.128Z,16.70
2018-07-16T04:56:53.380Z,16.60
2018-07-16T04:59:21.896Z,16.40
2018-07-16T05:01:50.156Z,16.20
2018-07-16T05:04:18.424Z,16.00
2018-07-16T05:06:46.682Z,15.90
2018-07-16T05:09:14.921Z,15.80
2018-07-16T05:11:43.197Z,15.60
2018-07-16T05:14:11.469Z,15.50
2018-07-16T05:16:39.717Z,15.40
2018-07-16T05:19:07.970Z,15.30
2018-07-16T05:24:10.760Z,15.30
2018-07-16T05:26:38.996Z,15.30
2018-07-16T05:29:07.249Z,15.30
2018-07-16T05:31:35.552Z,15.30
2018-07-16T05:34:03.797Z,15.30
2018-07-16T05:36:32.068Z,15.30
2018-07-16T05:39:00.320Z,15.40
2018-07-16T05:41:28.596Z,15.40
2018-07-16T05:43:56.848Z,15.40
2018-07-16T05:46:25.111Z,15.40
2018-07-16T05:48:53.364Z,15.50
2018-07-16T05:51:21.625Z,15.50
2018-07-16T05:53:49.879Z,15.50
2018-07-16T05:56:18.144Z,15.50
2018-07-16T05:58:46.400Z,15.50
2018-07-16T06:01:14.664Z,15.50
2018-07-16T06:03:42.913Z,15.50
2018-07-16T06:06:11.159Z,15.60
2018-07-16T06:08:39.423Z,15.60
2018-07-16T06:11:07.668Z,15.70
2018-07-16T06:13:35.920Z,15.70
2018-07-16T06:16:04.188Z,15.80
2018-07-16T06:18:32.448Z,16.00
2018-07-16T06:21:00.754Z,16.10
2018-07-16T06:23:28.969Z,16.20
2018-07-16T06:25:57.226Z,16.30
2018-07-16T06:28:25.479Z,16.40
2018-07-16T06:30:53.738Z,16.50
2018-07-16T06:33:21.980Z,16.60
2018-07-16T06:35:50.228Z,16.70
2018-07-16T06:38:18.460Z,16.90
2018-07-16T06:40:46.899Z,17.10
2018-07-16T06:43:15.093Z,17.10
2018-07-16T06:45:43.347Z,17.10
2018-07-16T06:48:11.597Z,17.20
2018-07-16T06:50:39.886Z,17.40
2018-07-16T06:53:08.133Z,17.60
2018-07-16T06:55:36.389Z,17.80
2018-07-16T06:58:04.645Z,18.00
2018-07-16T07:00:32.896Z,18.00
2018-07-16T07:03:01.184Z,18.10
2018-07-16T07:05:29.584Z,18.10
2018-07-16T07:07:57.849Z,18.10
2018-07-16T07:10:26.120Z,18.10
2018-07-16T07:12:54.567Z,18.20
2018-07-16T07:15:22.848Z,18.30
2018-07-16T07:17:51.113Z,18.30
2018-07-16T07:20:19.402Z,18.40
2018-07-16T07:22:47.628Z,18.40
2018-07-16T07:25:15.884Z,18.50
2018-07-16T07:27:44.132Z,18.60
2018-07-16T07:30:12.376Z,18.70
2018-07-16T07:32:40.628Z,18.90
2018-07-16T07:35:08.915Z,19.00
2018-07-16T07:37:37.213Z,19.10
2018-07-16T07:40:05.601Z,19.10
2018-07-16T07:42:33.895Z,19.20
2018-07-16T07:45:02.153Z,19.20
2018-07-16T07:47:30.446Z,19.20
2018-07-16T07:49:58.688Z,19.20
2018-07-16T07:52:26.928Z,19.20
2018-07-16T07:54:55.462Z,19.20
2018-07-16T07:57:23.592Z,19.20
2018-07-16T07:59:51.849Z,19.20
2018-07-16T08:02:20.144Z,19.50
2018-07-16T08:04:48.420Z,19.70
2018-07-16T08:07:16.696Z,20.20
2018-07-16T08:09:44.973Z,20.50
2018-07-16T08:12:13.745Z,20.80
2018-07-16T08:14:43.241Z,20.80
2018-07-16T08:17:11.580Z,20.90
2018-07-16T08:19:39.945Z,21.00
2018-07-16T08:22:08.407Z,21.40
2018-07-16T08:24:36.690Z,21.60
2018-07-16T08:27:05.125Z,21.60
2018-07-16T08:29:33.404Z,21.80
2018-07-16T08:32:01.673Z,22.10
2018-07-16T08:34:29.987Z,22.30
2018-07-16T08:36:58.296Z,22.40
2018-07-16T08:39:26.528Z,22.30
2018-07-16T08:41:54.828Z,22.30
2018-07-16T08:44:23.081Z,22.10
2018-07-16T08:46:51.332Z,22.10
2018-07-16T08:49:19.576Z,22.00
2018-07-16T08:51:47.821Z,22.30
2018-07-16T08:54:16.095Z,22.50
2018-07-16T08:56:44.336Z,22.20
2018-07-16T08:59:12.661Z,22.20
2018-07-16T09:01:40.853Z,22.10
2018-07-16T09:04:09.139Z,22.10
2018-07-16T09:06:37.834Z,22.10
2018-07-16T09:09:06.372Z,22.20
2018-07-16T09:11:34.725Z,22.20
2018-07-16T09:14:02.985Z,22.30
2018-07-16T09:16:31.237Z,22.20
2018-07-16T09:18:59.489Z,21.80
2018-07-16T09:21:27.741Z,21.80
2018-07-16T09:23:56.041Z,22.00
2018-07-16T09:26:24.309Z,22.10
2018-07-16T09:28:52.548Z,22.10
2018-07-16T09:31:20.825Z,22.10
2018-07-16T09:33:49.648Z,22.00
2018-07-16T09:36:17.981Z,21.80
2018-07-16T09:38:46.224Z,21.80
2018-07-16T09:41:14.488Z,22.00
2018-07-16T09:43:42.747Z,22.20
2018-07-16T09:46:11.007Z,22.40
2018-07-16T09:48:39.269Z,22.60
2018-07-16T09:51:07.524Z,22.60
2018-07-16T09:53:35.825Z,22.60
2018-07-16T09:56:04.101Z,22.50
2018-07-16T09:58:32.372Z,22.50
2018-07-16T10:01:05.913Z,22.50
2018-07-16T10:03:34.209Z,22.60
2018-07-16T10:06:02.488Z,22.90
2018-07-16T10:08:30.778Z,23.30
2018-07-16T10:10:59.005Z,23.50
2018-07-16T10:13:27.313Z,23.80
2018-07-16T10:15:55.580Z,24.00
2018-07-16T10:18:23.831Z,24.20
2018-07-16T10:20:52.113Z,24.00
2018-07-16T10:23:20.380Z,23.90
2018-07-16T10:25:48.649Z,23.70
2018-07-16T10:28:16.926Z,23.70
2018-07-16T10:30:45.176Z,23.80
2018-07-16T10:33:13.433Z,24.00
2018-07-16T10:35:41.686Z,24.20
2018-07-16T10:38:10.075Z,24.30
2018-07-16T10:40:38.360Z,24.40
2018-07-16T10:43:06.653Z,24.20
2018-07-16T10:45:35.435Z,23.70
2018-07-16T10:48:03.733Z,23.40
2018-07-16T10:50:31.978Z,23.20
2018-07-16T10:53:00.245Z,23.00
2018-07-16T10:55:28.520Z,22.90
2018-07-16T10:57:56.776Z,22.90
2018-07-16T11:00:25.297Z,23.10
2018-07-16T11:02:53.633Z,23.30
2018-07-16T11:05:21.915Z,23.50
2018-07-16T11:07:50.180Z,23.60
2018-07-16T11:10:18.429Z,23.60
2018-07-16T11:12:46.805Z,23.60
2018-07-16T11:15:15.078Z,23.60
2018-07-16T11:17:43.349Z,24.00
2018-07-16T11:20:11.611Z,24.20
2018-07-16T11:22:40.021Z,24.60
2018-07-16T11:25:08.634Z,24.80
2018-07-16T11:27:36.901Z,24.80
2018-07-16T11:30:06.262Z,24.90
2018-07-16T11:32:34.531Z,24.80
2018-07-16T11:35:02.814Z,24.70
2018-07-16T11:37:31.072Z,24.30
2018-07-16T11:39:59.328Z,24.30
2018-07-16T11:42:27.588Z,24.50
2018-07-16T11:44:55.834Z,24.40
2018-07-16T11:47:24.084Z,24.40
2018-07-16T11:49:52.341Z,24.40
2018-07-16T11:52:20.651Z,24.40
2018-07-16T11:54:48.878Z,24.40
2018-07-16T11:57:17.218Z,24.50
2018-07-16T11:59:45.449Z,24.40
2018-07-16T12:02:13.760Z,24.40
2018-07-16T12:04:42.016Z,24.50
2018-07-16T12:07:10.292Z,24.70
2018-07-16T12:09:38.556Z,24.70
2018-07-16T12:12:06.857Z,24.70
2018-07-16T12:14:35.107Z,24.50
2018-07-16T12:17:03.365Z,24.50
2018-07-16T12:19:31.648Z,24.70
2018-07-16T12:21:59.899Z,25.10
2018-07-16T12:24:28.183Z,25.40
2018-07-16T12:26:56.420Z,25.60
2018-07-16T12:29:24.716Z,25.80
2018-07-16T12:31:52.967Z,26.00
2018-07-16T12:34:21.233Z,25.90
2018-07-16T12:36:49.476Z,26.10
2018-07-16T12:39:17.836Z,26.30
2018-07-16T12:41:46.127Z,26.10
2018-07-16T12:44:14.352Z,25.70
2018-07-16T12:46:42.596Z,25.50
2018-07-16T12:49:10.857Z,25.40
2018-07-16T12:51:39.104Z,25.60
2018-07-16T12:54:07.388Z,25.50
2018-07-16T12:56:35.675Z,25.60
2018-07-16T12:59:04.069Z,25.90
2018-07-16T13:01:32.332Z,26.00
2018-07-16T13:04:00.584Z,26.30
2018-07-16T13:06:28.831Z,26.50
2018-07-16T13:08:57.094Z,26.60
2018-07-16T13:11:25.552Z,26.50
2018-07-16T13:13:53.817Z,26.50
2018-07-16T13:16:22.106Z,26.80
2018-07-16T13:18:50.363Z,26.80
2018-07-16T13:21:18.646Z,26.90
2018-07-16T13:23:46.915Z,26.90
2018-07-16T13:26:15.291Z,27.00
2018-07-16T13:28:43.549Z,27.00
2018-07-16T13:31:12.132Z,27.00
2018-07-16T13:33:40.373Z,27.10
2018-07-16T13:36:08.662Z,27.40
2018-07-16T13:41:40.141Z,27.60
2018-07-16T13:44:08.413Z,27.80
2018-07-16T13:46:36.688Z,27.90
2018-07-16T13:49:04.920Z,27.70
2018-07-16T13:51:33.212Z,27.40
2018-07-16T13:54:01.905Z,26.90
2018-07-16T13:56:30.377Z,26.60
2018-07-16T13:58:58.854Z,26.10
2018-07-16T14:01:27.359Z,26.30
2018-07-16T14:03:55.596Z,26.30
2018-07-16T14:06:23.876Z,26.20
2018-07-16T14:08:52.142Z,26.20
2018-07-16T14:11:20.413Z,26.20
2018-07-16T14:13:48.689Z,26.40
2018-07-16T14:16:16.966Z,26.40
2018-07-16T14:18:45.280Z,25.80
2018-07-16T14:21:13.606Z,25.60
2018-07-16T14:23:42.353Z,25.50
2018-07-16T14:26:10.738Z,25.50
2018-07-16T14:28:39.006Z,25.70
2018-07-16T14:31:07.287Z,25.50
2018-07-16T14:33:35.646Z,25.40
2018-07-16T14:36:04.009Z,25.50
2018-07-16T14:38:32.288Z,25.50
2018-07-16T14:41:00.728Z,25.50
2018-07-16T14:43:29.097Z,25.60
2018-07-16T14:45:57.475Z,24.90
2018-07-16T14:48:25.747Z,24.80
2018-07-16T14:50:54.154Z,24.80
2018-07-16T14:53:22.436Z,24.60
2018-07-16T14:55:50.704Z,24.30
2018-07-16T14:58:18.976Z,24.20
2018-07-16T15:00:47.361Z,24.20
2018-07-16T15:03:15.627Z,24.00
2018-07-16T15:05:44.003Z,24.00
2018-07-16T15:08:12.317Z,23.90
2018-07-16T15:10:40.721Z,23.80
2018-07-16T15:13:09.087Z,23.70
2018-07-16T15:15:37.360Z,23.60
2018-07-16T15:18:05.953Z,23.30
2018-07-16T15:20:34.410Z,23.10
2018-07-16T15:23:02.517Z,22.70
2018-07-16T15:25:30.933Z,22.10
2018-07-16T15:27:59.385Z,21.20
2018-07-16T15:30:27.854Z,20.80
2018-07-16T15:32:56.136Z,20.50
2018-07-16T15:35:24.501Z,20.30
2018-07-16T15:37:53.050Z,20.00
2018-07-16T15:40:21.315Z,19.60
2018-07-16T15:42:49.700Z,19.70
2018-07-16T15:45:17.993Z,19.70
2018-07-16T15:47:46.349Z,19.70
2018-07-16T15:50:14.623Z,19.80
2018-07-16T15:52:42.895Z,19.90
2018-07-16T15:55:11.189Z,20.10
2018-07-16T15:57:39.476Z,20.30
2018-07-16T16:00:07.728Z,20.50
2018-07-16T16:02:36.121Z,20.80
2018-07-16T16:05:04.453Z,21.00
2018-07-16T16:07:33.151Z,21.30
2018-07-16T16:10:02.580Z,21.50
2018-07-16T16:12:30.861Z,21.60
2018-07-16T16:14:59.260Z,21.70
2018-07-16T16:17:27.561Z,21.90
2018-07-16T16:19:55.865Z,22.20
2018-07-16T16:22:24.162Z,22.50
2018-07-16T16:24:52.418Z,23.00
2018-07-16T16:27:20.733Z,24.00
2018-07-16T16:29:49.199Z,25.80
2018-07-16T16:32:17.829Z,27.60
2018-07-16T16:34:46.184Z,29.30
2018-07-16T16:37:14.613Z,31.30
2018-07-16T16:39:42.995Z,32.90
2018-07-16T16:42:11.420Z,34.00
2018-07-16T16:44:39.704Z,35.00
2018-07-16T16:47:09.669Z,35.70
2018-07-16T16:49:38.594Z,36.10
2018-07-16T16:52:14.009Z,36.30
2018-07-16T16:54:42.682Z,36.50
2018-07-16T16:57:11.545Z,36.90
2018-07-16T16:59:40.077Z,37.00
2018-07-16T17:02:08.897Z,37.60
2018-07-16T17:04:37.226Z,37.60
2018-07-16T17:07:05.763Z,37.70
2018-07-16T17:09:34.197Z,37.90
2018-07-16T17:12:02.642Z,37.80
2018-07-16T17:14:30.909Z,37.40
2018-07-16T17:16:59.153Z,37.80
2018-07-16T17:19:27.459Z,37.50
2018-07-16T17:21:55.738Z,37.00
2018-07-16T17:24:24.216Z,36.50
2018-07-16T17:26:52.489Z,35.70
2018-07-16T17:29:21.068Z,35.80
2018-07-16T17:31:49.500Z,35.80
2018-07-16T17:34:17.792Z,35.50
2018-07-16T17:36:46.431Z,35.40
2018-07-16T17:39:15.079Z,35.30
2018-07-16T17:41:43.343Z,35.00
2018-07-16T17:44:11.633Z,35.00
2018-07-16T17:46:39.914Z,34.70
2018-07-16T17:49:08.287Z,34.30
2018-07-16T17:51:36.770Z,33.90
2018-07-16T17:54:05.407Z,33.70
2018-07-16T17:56:34.178Z,33.80
2018-07-16T17:59:02.437Z,33.60
2018-07-16T18:01:30.716Z,33.60
2018-07-16T18:03:58.994Z,33.30
2018-07-16T18:06:27.369Z,32.80
2018-07-16T18:08:55.670Z,32.60
2018-07-16T18:11:23.911Z,32.40
2018-07-16T18:13:52.241Z,32.20
2018-07-16T18:16:20.520Z,31.90
2018-07-16T18:18:48.808Z,31.50
2018-07-16T18:21:17.080Z,31.10
2018-07-16T18:23:45.429Z,30.60
2018-07-16T18:26:13.684Z,29.60
2018-07-16T18:28:41.945Z,28.60
2018-07-16T18:31:10.217Z,27.60
2018-07-16T18:33:38.512Z,26.70
2018-07-16T18:36:06.793Z,25.90
2018-07-16T18:38:35.049Z,25.20
2018-07-16T18:41:03.449Z,24.60
2018-07-16T18:43:31.749Z,24.00
2018-07-16T18:46:00.009Z,23.60
2018-07-16T18:48:28.321Z,23.00
2018-07-16T18:50:56.584Z,22.70
2018-07-16T18:53:24.861Z,22.50
2018-07-16T18:55:53.142Z,22.20
2018-07-16T18:58:21.425Z,22.00
2018-07-16T19:00:49.680Z,21.80
2018-07-16T19:03:21.088Z,21.60
2018-07-16T19:05:49.493Z,21.40
2018-07-16T19:08:17.759Z,21.20
2018-07-16T19:10:46.007Z,21.00
2018-07-16T19:13:14.375Z,20.90
2018-07-16T19:15:42.720Z,20.80
2018-07-16T19:18:11.137Z,20.70
2018-07-16T19:20:39.495Z,20.60
2018-07-16T19:23:07.791Z,20.50
2018-07-16T19:25:36.188Z,20.40
2018-07-16T19:28:04.472Z,20.30
2018-07-16T19:30:32.808Z,20.20
2018-07-16T19:33:01.184Z,20.10
2018-07-16T19:35:29.581Z,20.00
2018-07-16T19:37:57.917Z,19.80
2018-07-16T19:40:26.304Z,19.70
2018-07-16T19:42:54.571Z,19.70
2018-07-16T19:45:22.843Z,19.60
2018-07-16T19:47:51.108Z,19.50
2018-07-16T19:50:19.460Z,19.40
2018-07-16T19:52:47.725Z,19.30
2018-07-16T19:55:16.144Z,19.20
2018-07-16T19:57:44.384Z,19.10
2018-07-16T20:00:12.639Z,19.10
2018-07-16T20:02:41.054Z,19.10
2018-07-16T20:05:09.338Z,19.00
2018-07-16T20:07:37.645Z,18.90
2018-07-16T20:10:06.158Z,18.80
2018-07-16T20:12:35.867Z,18.70
2018-07-16T20:15:04.919Z,18.80
2018-07-16T20:17:33.294Z,18.80
2018-07-16T20:20:01.606Z,18.70
2018-07-16T20:22:30.304Z,18.60
2018-07-16T20:24:59.118Z,18.60
2018-07-16T20:27:27.421Z,18.50
2018-07-16T20:29:55.752Z,18.50
2018-07-16T20:32:24.084Z,18.30
2018-07-16T20:34:52.336Z,18.30
2018-07-16T20:37:20.588Z,18.30
2018-07-16T20:39:49.032Z,18.20
2018-07-16T20:42:17.373Z,18.20
2018-07-16T20:44:45.643Z,18.20
2018-07-16T20:51:58.564Z,18.20
2018-07-16T20:54:26.839Z,18.10
2018-07-16T20:56:55.113Z,18.10
2018-07-16T20:59:23.416Z,18.00
2018-07-16T21:01:51.739Z,17.90
2018-07-16T21:04:20.119Z,17.80
2018-07-16T21:06:48.396Z,17.70
2018-07-16T21:09:16.645Z,17.80
2018-07-16T21:14:12.900Z,17.70
2018-07-16T21:16:41.270Z,17.70
2018-07-16T21:19:09.483Z,17.70
2018-07-16T21:21:37.805Z,17.60
2018-07-16T21:24:06.137Z,17.60
2018-07-16T21:26:34.392Z,17.60
2018-07-16T21:29:02.680Z,17.60
2018-07-16T21:31:31.001Z,17.60
2018-07-16T21:33:59.289Z,17.60
2018-07-16T21:36:27.552Z,17.60
2018-07-16T21:38:55.828Z,17.60
2018-07-16T21:41:24.089Z,17.50
2018-07-16T21:43:52.425Z,17.50
2018-07-16T21:46:20.648Z,17.40
2018-07-16T21:48:48.985Z,17.40
2018-07-16T21:51:17.244Z,17.40
2018-07-16T21:53:45.508Z,17.40
2018-07-16T21:56:13.865Z,17.40
2018-07-16T21:58:42.137Z,17.30
2018-07-16T22:01:10.465Z,17.30
2018-07-16T22:03:38.748Z,17.30
2018-07-16T22:06:07.118Z,17.30
2018-07-16T22:11:09.929Z,17.10
2018-07-16T22:13:38.221Z,17.10
2018-07-16T22:16:06.649Z,17.00
2018-07-16T22:18:34.845Z,17.00
2018-07-16T22:21:03.172Z,17.00
2018-07-16T22:23:31.444Z,17.00
2018-07-16T22:25:59.723Z,17.00
2018-07-16T22:28:28.726Z,16.90
2018-07-16T22:30:56.973Z,16.90
2018-07-16T22:33:25.224Z,16.90
2018-07-16T22:35:53.509Z,16.90
2018-07-16T22:38:21.880Z,16.90
2018-07-16T22:40:50.903Z,16.80
2018-07-16T22:43:19.152Z,16.80
2018-07-16T22:45:47.416Z,16.80
2018-07-16T22:48:15.670Z,16.80
2018-07-16T22:50:43.957Z,16.80
2018-07-16T22:53:12.271Z,16.70
2018-07-16T22:55:40.598Z,16.60
2018-07-16T22:58:08.921Z,16.60
2018-07-16T23:00:37.176Z,16.70
2018-07-16T23:03:05.473Z,16.60
2018-07-16T23:08:01.720Z,16.60
2018-07-16T23:10:30.008Z,16.50
2018-07-16T23:12:58.283Z,16.40
2018-07-16T23:15:26.524Z,16.30
2018-07-16T23:17:54.784Z,16.30
2018-07-16T23:20:23.056Z,16.30
2018-07-16T23:22:56.920Z,16.30
2018-07-16T23:25:25.176Z,16.40
2018-07-16T23:27:53.426Z,16.40
2018-07-16T23:30:21.697Z,16.30
2018-07-16T23:32:50.081Z,16.30
2018-07-16T23:35:18.516Z,16.30
2018-07-16T23:37:47.076Z,16.30
2018-07-16T23:40:15.400Z,16.30
2018-07-16T23:42:45.184Z,16.20
2018-07-16T23:45:13.574Z,16.20
2018-07-16T23:47:48.224Z,16.30
2018-07-16T23:52:44.686Z,16.10
2018-07-16T23:55:12.954Z,16.00
2018-07-16T23:57:41.221Z,16.00
